Terminal Aerodrome Forecast
Issued by NWS Tuscon, AZ

Home | Current Version | Previous Version | Text Only | Print | Product List | Glossary On
Versions: 1 2 3 4 5 6 7 8 9 10 11 12 13 14 15 16 17 18 19
000
FTUS45 KTWC 191100
TAFDUG
TAF
KDUG 191122Z 1912/2012 13005KT P6SM SCT035 BKN050
      TEMPO 1912/1914 5SM BR SCT010 BKN035
     FM192000 27008KT P6SM VCSH SCT030 BKN050
     FM200000 29007KT P6SM SCT040 BKN060
     FM200300 04005KT P6SM SCT070=

USA.gov is the U.S. government's official web portal to all federal, state and local government web resources and services.